sensor_id;sensor_type;location;lat;lon;timestamp;temperature;humidity
52189;DHT22;38162;45.926;13.608;2023-04-15T00:00:42;10.20;99.90
52189;DHT22;38162;45.926;13.608;2023-04-15T00:03:08;10.20;99.90
52189;DHT22;38162;45.926;13.608;2023-04-15T00:05:33;10.20;99.90
52189;DHT22;38162;45.926;13.608;2023-04-15T00:07:59;10.20;99.90
52189;DHT22;38162;45.926;13.608;2023-04-15T00:10:26;10.20;99.90
52189;DHT22;38162;45.926;13.608;2023-04-15T00:12:52;10.20;99.90
52189;DHT22;38162;45.926;13.608;2023-04-15T00:15:18;10.20;99.90
52189;DHT22;38162;45.926;13.608;2023-04-15T00:17:44;10.20;99.90
52189;DHT22;38162;45.926;13.608;2023-04-15T00:20:10;10.20;99.90
52189;DHT22;38162;45.926;13.608;2023-04-15T00:22:36;10.10;99.90
52189;DHT22;38162;45.926;13.608;2023-04-15T00:25:02;10.10;99.90
52189;DHT22;38162;45.926;13.608;2023-04-15T00:27:28;10.10;99.90
52189;DHT22;38162;45.926;13.608;2023-04-15T00:29:54;10.10;99.90
52189;DHT22;38162;45.926;13.608;2023-04-15T00:32:20;10.10;99.90
52189;DHT22;38162;45.926;13.608;2023-04-15T00:34:46;10.10;99.90
52189;DHT22;38162;45.926;13.608;2023-04-15T00:37:12;10.10;99.90
52189;DHT22;38162;45.926;13.608;2023-04-15T00:39:38;10.10;99.90
52189;DHT22;38162;45.926;13.608;2023-04-15T00:42:04;10.10;99.90
52189;DHT22;38162;45.926;13.608;2023-04-15T00:44:30;10.10;99.90
52189;DHT22;38162;45.926;13.608;2023-04-15T00:46:56;10.10;99.90
52189;DHT22;38162;45.926;13.608;2023-04-15T00:49:23;10.10;99.90
52189;DHT22;38162;45.926;13.608;2023-04-15T00:51:49;10.10;99.90
52189;DHT22;38162;45.926;13.608;2023-04-15T00:54:15;10.10;99.90
52189;DHT22;38162;45.926;13.608;2023-04-15T00:56:41;10.10;99.90
52189;DHT22;38162;45.926;13.608;2023-04-15T00:59:08;10.10;99.90
52189;DHT22;38162;45.926;13.608;2023-04-15T01:01:37;10.10;99.90
52189;DHT22;38162;45.926;13.608;2023-04-15T01:04:03;10.10;99.90
52189;DHT22;38162;45.926;13.608;2023-04-15T01:06:30;10.10;99.90
52189;DHT22;38162;45.926;13.608;2023-04-15T01:08:57;10.10;99.90
52189;DHT22;38162;45.926;13.608;2023-04-15T01:11:23;10.10;99.90
52189;DHT22;38162;45.926;13.608;2023-04-15T01:13:51;10.10;99.90
52189;DHT22;38162;45.926;13.608;2023-04-15T01:16:17;10.10;99.90
52189;DHT22;38162;45.926;13.608;2023-04-15T01:18:43;10.10;99.90
52189;DHT22;38162;45.926;13.608;2023-04-15T01:21:10;10.00;99.90
52189;DHT22;38162;45.926;13.608;2023-04-15T01:23:37;10.00;99.90
52189;DHT22;38162;45.926;13.608;2023-04-15T01:26:03;10.00;99.90
52189;DHT22;38162;45.926;13.608;2023-04-15T01:28:30;10.00;99.90
52189;DHT22;38162;45.926;13.608;2023-04-15T01:31:12;10.00;99.90
52189;DHT22;38162;45.926;13.608;2023-04-15T01:33:39;10.10;99.90
52189;DHT22;38162;45.926;13.608;2023-04-15T01:36:07;10.10;99.80
52189;DHT22;38162;45.926;13.608;2023-04-15T01:38:34;10.10;99.80
52189;DHT22;38162;45.926;13.608;2023-04-15T01:41:01;10.10;99.70
52189;DHT22;38162;45.926;13.608;2023-04-15T01:43:28;10.10;99.70
52189;DHT22;38162;45.926;13.608;2023-04-15T01:45:54;10.00;99.60
52189;DHT22;38162;45.926;13.608;2023-04-15T01:48:21;10.00;99.70
52189;DHT22;38162;45.926;13.608;2023-04-15T01:50:47;10.00;99.70
52189;DHT22;38162;45.926;13.608;2023-04-15T01:53:13;10.00;99.70
52189;DHT22;38162;45.926;13.608;2023-04-15T01:55:40;10.00;99.60
52189;DHT22;38162;45.926;13.608;2023-04-15T01:58:06;10.00;99.60
52189;DHT22;38162;45.926;13.608;2023-04-15T02:00:32;9.90;99.60
52189;DHT22;38162;45.926;13.608;2023-04-15T02:02:57;9.90;99.60
52189;DHT22;38162;45.926;13.608;2023-04-15T02:05:24;9.90;99.70
52189;DHT22;38162;45.926;13.608;2023-04-15T02:07:50;9.90;99.80
52189;DHT22;38162;45.926;13.608;2023-04-15T02:10:16;10.00;99.90
52189;DHT22;38162;45.926;13.608;2023-04-15T02:12:42;9.90;99.80
52189;DHT22;38162;45.926;13.608;2023-04-15T02:15:08;9.90;99.90
52189;DHT22;38162;45.926;13.608;2023-04-15T02:17:35;9.90;99.90
52189;DHT22;38162;45.926;13.608;2023-04-15T02:20:02;9.90;99.90
52189;DHT22;38162;45.926;13.608;2023-04-15T02:22:30;9.90;99.90
52189;DHT22;38162;45.926;13.608;2023-04-15T02:24:56;9.90;99.90
52189;DHT22;38162;45.926;13.608;2023-04-15T02:27:22;9.90;99.90
52189;DHT22;38162;45.926;13.608;2023-04-15T02:29:47;9.90;99.90
52189;DHT22;38162;45.926;13.608;2023-04-15T02:32:15;9.90;99.90
52189;DHT22;38162;45.926;13.608;2023-04-15T02:34:41;9.90;99.90
52189;DHT22;38162;45.926;13.608;2023-04-15T02:37:08;9.80;99.90
52189;DHT22;38162;45.926;13.608;2023-04-15T02:39:34;9.80;99.90
52189;DHT22;38162;45.926;13.608;2023-04-15T02:42:00;9.80;99.90
52189;DHT22;38162;45.926;13.608;2023-04-15T02:44:27;9.80;99.90
52189;DHT22;38162;45.926;13.608;2023-04-15T02:46:53;9.80;99.90
52189;DHT22;38162;45.926;13.608;2023-04-15T02:49:22;9.80;99.90
52189;DHT22;38162;45.926;13.608;2023-04-15T02:51:48;9.80;99.90
52189;DHT22;38162;45.926;13.608;2023-04-15T02:54:21;9.80;99.90
52189;DHT22;38162;45.926;13.608;2023-04-15T02:56:50;9.80;99.90
52189;DHT22;38162;45.926;13.608;2023-04-15T02:59:19;9.70;99.90
52189;DHT22;38162;45.926;13.608;2023-04-15T03:01:45;9.70;99.90
52189;DHT22;38162;45.926;13.608;2023-04-15T03:04:11;9.70;99.90
52189;DHT22;38162;45.926;13.608;2023-04-15T03:06:37;9.70;99.90
52189;DHT22;38162;45.926;13.608;2023-04-15T03:09:03;9.70;99.90
52189;DHT22;38162;45.926;13.608;2023-04-15T03:11:29;9.70;99.90
52189;DHT22;38162;45.926;13.608;2023-04-15T03:13:56;9.70;99.90
52189;DHT22;38162;45.926;13.608;2023-04-15T03:16:23;9.60;99.90
52189;DHT22;38162;45.926;13.608;2023-04-15T03:18:48;9.60;99.90
52189;DHT22;38162;45.926;13.608;2023-04-15T03:21:15;9.60;99.80
52189;DHT22;38162;45.926;13.608;2023-04-15T03:23:40;9.60;99.80
52189;DHT22;38162;45.926;13.608;2023-04-15T03:26:06;9.60;99.80
52189;DHT22;38162;45.926;13.608;2023-04-15T03:28:32;9.60;99.80
52189;DHT22;38162;45.926;13.608;2023-04-15T03:30:58;9.60;99.80
52189;DHT22;38162;45.926;13.608;2023-04-15T03:33:24;9.70;99.80
52189;DHT22;38162;45.926;13.608;2023-04-15T03:35:50;9.60;99.70
52189;DHT22;38162;45.926;13.608;2023-04-15T03:38:17;9.60;99.80
52189;DHT22;38162;45.926;13.608;2023-04-15T03:40:44;9.60;99.70
52189;DHT22;38162;45.926;13.608;2023-04-15T03:43:10;9.60;99.70
52189;DHT22;38162;45.926;13.608;2023-04-15T03:45:36;9.60;99.80
52189;DHT22;38162;45.926;13.608;2023-04-15T03:48:02;9.70;99.80
52189;DHT22;38162;45.926;13.608;2023-04-15T03:50:28;9.60;99.80
52189;DHT22;38162;45.926;13.608;2023-04-15T03:52:54;9.60;99.80
52189;DHT22;38162;45.926;13.608;2023-04-15T03:55:19;9.70;99.80
52189;DHT22;38162;45.926;13.608;2023-04-15T03:57:45;9.70;99.70
52189;DHT22;38162;45.926;13.608;2023-04-15T04:00:11;9.70;99.70
52189;DHT22;38162;45.926;13.608;2023-04-15T04:02:37;9.70;99.80
52189;DHT22;38162;45.926;13.608;2023-04-15T04:05:03;9.70;99.80
52189;DHT22;38162;45.926;13.608;2023-04-15T04:07:29;9.70;99.90
52189;DHT22;38162;45.926;13.608;2023-04-15T04:09:56;9.70;99.80
52189;DHT22;38162;45.926;13.608;2023-04-15T04:12:22;9.70;99.90
52189;DHT22;38162;45.926;13.608;2023-04-15T04:14:48;9.70;99.90
52189;DHT22;38162;45.926;13.608;2023-04-15T04:17:14;9.70;99.90
52189;DHT22;38162;45.926;13.608;2023-04-15T04:19:39;9.70;99.90
52189;DHT22;38162;45.926;13.608;2023-04-15T04:22:05;9.70;99.90
52189;DHT22;38162;45.926;13.608;2023-04-15T04:24:31;9.70;99.90
52189;DHT22;38162;45.926;13.608;2023-04-15T04:26:57;9.70;99.90
52189;DHT22;38162;45.926;13.608;2023-04-15T04:29:23;9.70;99.90
52189;DHT22;38162;45.926;13.608;2023-04-15T04:31:49;9.70;99.90
52189;DHT22;38162;45.926;13.608;2023-04-15T04:34:15;9.70;99.90
52189;DHT22;38162;45.926;13.608;2023-04-15T04:36:41;9.70;99.90
52189;DHT22;38162;45.926;13.608;2023-04-15T04:39:06;9.80;99.90
52189;DHT22;38162;45.926;13.608;2023-04-15T04:41:32;9.70;99.90
52189;DHT22;38162;45.926;13.608;2023-04-15T04:43:58;9.80;99.80
52189;DHT22;38162;45.926;13.608;2023-04-15T04:46:24;9.70;99.80
52189;DHT22;38162;45.926;13.608;2023-04-15T04:48:49;9.70;99.80
52189;DHT22;38162;45.926;13.608;2023-04-15T04:51:15;9.70;99.80
52189;DHT22;38162;45.926;13.608;2023-04-15T04:53:41;9.70;99.90
52189;DHT22;38162;45.926;13.608;2023-04-15T04:56:08;9.70;99.90
52189;DHT22;38162;45.926;13.608;2023-04-15T04:58:33;9.70;99.80
52189;DHT22;38162;45.926;13.608;2023-04-15T05:00:59;9.70;99.70
52189;DHT22;38162;45.926;13.608;2023-04-15T05:03:25;9.70;99.80
52189;DHT22;38162;45.926;13.608;2023-04-15T05:05:51;9.70;99.80
52189;DHT22;38162;45.926;13.608;2023-04-15T05:08:17;9.70;99.80
52189;DHT22;38162;45.926;13.608;2023-04-15T05:10:43;9.70;99.80
52189;DHT22;38162;45.926;13.608;2023-04-15T05:13:08;9.70;99.70
52189;DHT22;38162;45.926;13.608;2023-04-15T05:15:34;9.70;99.70
52189;DHT22;38162;45.926;13.608;2023-04-15T05:18:04;9.70;99.60
52189;DHT22;38162;45.926;13.608;2023-04-15T05:20:30;9.70;99.40
52189;DHT22;38162;45.926;13.608;2023-04-15T05:22:55;9.70;99.40
52189;DHT22;38162;45.926;13.608;2023-04-15T05:25:21;9.70;99.50
52189;DHT22;38162;45.926;13.608;2023-04-15T05:27:47;9.70;99.50
52189;DHT22;38162;45.926;13.608;2023-04-15T05:30:13;9.70;99.40
52189;DHT22;38162;45.926;13.608;2023-04-15T05:32:39;9.70;99.50
52189;DHT22;38162;45.926;13.608;2023-04-15T05:35:05;9.70;99.50
52189;DHT22;38162;45.926;13.608;2023-04-15T05:37:32;9.70;99.50
52189;DHT22;38162;45.926;13.608;2023-04-15T05:39:58;9.70;99.60
52189;DHT22;38162;45.926;13.608;2023-04-15T05:42:24;9.70;99.70
52189;DHT22;38162;45.926;13.608;2023-04-15T05:44:49;9.70;99.60
52189;DHT22;38162;45.926;13.608;2023-04-15T05:47:15;9.70;99.50
52189;DHT22;38162;45.926;13.608;2023-04-15T05:49:41;9.70;99.40
52189;DHT22;38162;45.926;13.608;2023-04-15T05:52:07;9.70;99.40
52189;DHT22;38162;45.926;13.608;2023-04-15T05:54:32;9.80;99.50
52189;DHT22;38162;45.926;13.608;2023-04-15T05:56:58;9.80;99.20
52189;DHT22;38162;45.926;13.608;2023-04-15T05:59:24;9.80;99.00
52189;DHT22;38162;45.926;13.608;2023-04-15T06:01:50;9.80;98.80
52189;DHT22;38162;45.926;13.608;2023-04-15T06:04:16;9.80;98.80
52189;DHT22;38162;45.926;13.608;2023-04-15T06:06:42;9.80;98.70
52189;DHT22;38162;45.926;13.608;2023-04-15T06:09:08;9.80;98.70
52189;DHT22;38162;45.926;13.608;2023-04-15T06:11:34;9.90;98.90
52189;DHT22;38162;45.926;13.608;2023-04-15T06:13:59;9.90;99.00
52189;DHT22;38162;45.926;13.608;2023-04-15T06:16:25;9.90;99.00
52189;DHT22;38162;45.926;13.608;2023-04-15T06:18:51;9.90;99.10
52189;DHT22;38162;45.926;13.608;2023-04-15T06:21:17;10.00;99.20
52189;DHT22;38162;45.926;13.608;2023-04-15T06:23:43;10.10;99.10
52189;DHT22;38162;45.926;13.608;2023-04-15T06:26:09;10.10;99.10
52189;DHT22;38162;45.926;13.608;2023-04-15T06:28:35;10.10;99.10
52189;DHT22;38162;45.926;13.608;2023-04-15T06:31:00;10.20;99.10
52189;DHT22;38162;45.926;13.608;2023-04-15T06:33:26;10.20;98.90
52189;DHT22;38162;45.926;13.608;2023-04-15T06:35:52;10.20;98.80
52189;DHT22;38162;45.926;13.608;2023-04-15T06:38:18;10.30;98.90
52189;DHT22;38162;45.926;13.608;2023-04-15T06:40:43;10.30;98.90
52189;DHT22;38162;45.926;13.608;2023-04-15T06:43:10;10.30;98.30
52189;DHT22;38162;45.926;13.608;2023-04-15T06:45:36;10.40;98.30
52189;DHT22;38162;45.926;13.608;2023-04-15T06:48:01;10.40;98.10
52189;DHT22;38162;45.926;13.608;2023-04-15T06:50:27;10.40;97.90
52189;DHT22;38162;45.926;13.608;2023-04-15T06:52:54;10.40;97.70
52189;DHT22;38162;45.926;13.608;2023-04-15T06:55:20;10.50;97.50
52189;DHT22;38162;45.926;13.608;2023-04-15T06:57:45;10.50;97.40
52189;DHT22;38162;45.926;13.608;2023-04-15T07:00:12;10.50;97.40
52189;DHT22;38162;45.926;13.608;2023-04-15T07:02:37;10.50;97.40
52189;DHT22;38162;45.926;13.608;2023-04-15T07:05:04;10.50;97.30
52189;DHT22;38162;45.926;13.608;2023-04-15T07:07:30;10.60;97.30
52189;DHT22;38162;45.926;13.608;2023-04-15T07:09:56;10.60;97.40
52189;DHT22;38162;45.926;13.608;2023-04-15T07:12:22;10.60;97.30
52189;DHT22;38162;45.926;13.608;2023-04-15T07:14:48;10.70;97.40
52189;DHT22;38162;45.926;13.608;2023-04-15T07:17:14;10.70;97.20
52189;DHT22;38162;45.926;13.608;2023-04-15T07:19:40;10.80;97.00
52189;DHT22;38162;45.926;13.608;2023-04-15T07:22:06;10.80;97.20
52189;DHT22;38162;45.926;13.608;2023-04-15T07:24:32;10.80;96.90
52189;DHT22;38162;45.926;13.608;2023-04-15T07:26:58;10.90;96.80
52189;DHT22;38162;45.926;13.608;2023-04-15T07:29:24;10.90;96.90
52189;DHT22;38162;45.926;13.608;2023-04-15T07:31:50;11.00;96.80
52189;DHT22;38162;45.926;13.608;2023-04-15T07:34:17;11.00;96.50
52189;DHT22;38162;45.926;13.608;2023-04-15T07:36:43;11.10;96.50
52189;DHT22;38162;45.926;13.608;2023-04-15T07:39:10;11.10;96.50
52189;DHT22;38162;45.926;13.608;2023-04-15T07:41:36;11.20;96.40
52189;DHT22;38162;45.926;13.608;2023-04-15T07:44:02;11.30;96.50
52189;DHT22;38162;45.926;13.608;2023-04-15T07:46:28;11.30;96.50
52189;DHT22;38162;45.926;13.608;2023-04-15T07:48:54;11.30;96.60
52189;DHT22;38162;45.926;13.608;2023-04-15T07:51:20;11.30;96.70
52189;DHT22;38162;45.926;13.608;2023-04-15T07:53:46;11.30;96.70
52189;DHT22;38162;45.926;13.608;2023-04-15T07:56:12;11.40;96.60
52189;DHT22;38162;45.926;13.608;2023-04-15T07:58:38;11.40;96.50
52189;DHT22;38162;45.926;13.608;2023-04-15T08:01:04;11.40;96.90
52189;DHT22;38162;45.926;13.608;2023-04-15T08:03:31;11.50;96.80
52189;DHT22;38162;45.926;13.608;2023-04-15T08:05:57;11.50;96.60
52189;DHT22;38162;45.926;13.608;2023-04-15T08:08:23;11.50;96.50
52189;DHT22;38162;45.926;13.608;2023-04-15T08:10:49;11.50;96.40
52189;DHT22;38162;45.926;13.608;2023-04-15T08:13:15;11.50;96.10
52189;DHT22;38162;45.926;13.608;2023-04-15T08:15:41;11.60;96.10
52189;DHT22;38162;45.926;13.608;2023-04-15T08:18:07;11.50;96.20
52189;DHT22;38162;45.926;13.608;2023-04-15T08:20:33;11.60;96.30
52189;DHT22;38162;45.926;13.608;2023-04-15T08:22:59;11.60;96.40
52189;DHT22;38162;45.926;13.608;2023-04-15T08:25:25;11.60;96.60
52189;DHT22;38162;45.926;13.608;2023-04-15T08:27:54;11.60;96.60
52189;DHT22;38162;45.926;13.608;2023-04-15T08:30:19;11.60;96.70
52189;DHT22;38162;45.926;13.608;2023-04-15T08:32:46;11.70;96.80
52189;DHT22;38162;45.926;13.608;2023-04-15T08:35:12;11.60;96.90
52189;DHT22;38162;45.926;13.608;2023-04-15T08:37:38;11.70;96.50
52189;DHT22;38162;45.926;13.608;2023-04-15T08:40:04;11.70;96.20
52189;DHT22;38162;45.926;13.608;2023-04-15T08:42:31;11.70;96.00
52189;DHT22;38162;45.926;13.608;2023-04-15T08:45:03;11.70;95.80
52189;DHT22;38162;45.926;13.608;2023-04-15T08:47:30;11.70;95.80
52189;DHT22;38162;45.926;13.608;2023-04-15T08:49:57;11.80;95.80
52189;DHT22;38162;45.926;13.608;2023-04-15T08:52:26;11.80;95.90
52189;DHT22;38162;45.926;13.608;2023-04-15T08:54:56;11.80;96.00
52189;DHT22;38162;45.926;13.608;2023-04-15T08:57:29;11.80;96.00
52189;DHT22;38162;45.926;13.608;2023-04-15T08:59:55;11.80;96.30
52189;DHT22;38162;45.926;13.608;2023-04-15T09:02:23;11.90;96.60
52189;DHT22;38162;45.926;13.608;2023-04-15T09:04:49;11.90;96.50
52189;DHT22;38162;45.926;13.608;2023-04-15T09:07:15;11.90;96.40
52189;DHT22;38162;45.926;13.608;2023-04-15T09:09:41;11.90;96.50
52189;DHT22;38162;45.926;13.608;2023-04-15T09:12:07;11.90;96.60
52189;DHT22;38162;45.926;13.608;2023-04-15T09:14:33;12.00;96.50
52189;DHT22;38162;45.926;13.608;2023-04-15T09:17:01;12.00;96.30
52189;DHT22;38162;45.926;13.608;2023-04-15T09:19:28;12.10;96.00
52189;DHT22;38162;45.926;13.608;2023-04-15T09:21:56;12.10;96.10
52189;DHT22;38162;45.926;13.608;2023-04-15T09:24:22;12.10;96.20
52189;DHT22;38162;45.926;13.608;2023-04-15T09:26:53;12.10;96.30
52189;DHT22;38162;45.926;13.608;2023-04-15T09:29:23;12.20;96.20
52189;DHT22;38162;45.926;13.608;2023-04-15T09:31:51;12.20;96.20
52189;DHT22;38162;45.926;13.608;2023-04-15T09:34:17;12.20;96.10
52189;DHT22;38162;45.926;13.608;2023-04-15T09:39:12;12.30;95.90
52189;DHT22;38162;45.926;13.608;2023-04-15T09:41:38;12.30;95.80
52189;DHT22;38162;45.926;13.608;2023-04-15T09:44:05;12.30;95.80
52189;DHT22;38162;45.926;13.608;2023-04-15T09:46:44;12.40;95.80
52189;DHT22;38162;45.926;13.608;2023-04-15T09:49:11;12.40;95.80
52189;DHT22;38162;45.926;13.608;2023-04-15T09:51:38;12.40;95.90
52189;DHT22;38162;45.926;13.608;2023-04-15T09:54:04;12.40;95.80
52189;DHT22;38162;45.926;13.608;2023-04-15T09:56:37;12.40;96.00
52189;DHT22;38162;45.926;13.608;2023-04-15T09:59:09;12.50;95.80
52189;DHT22;38162;45.926;13.608;2023-04-15T10:01:35;12.50;96.00
52189;DHT22;38162;45.926;13.608;2023-04-15T10:04:03;12.50;95.80
52189;DHT22;38162;45.926;13.608;2023-04-15T10:06:29;12.50;95.70
52189;DHT22;38162;45.926;13.608;2023-04-15T10:08:57;12.50;95.60
52189;DHT22;38162;45.926;13.608;2023-04-15T10:11:23;12.50;95.40
52189;DHT22;38162;45.926;13.608;2023-04-15T10:13:50;12.50;95.30
52189;DHT22;38162;45.926;13.608;2023-04-15T10:16:18;12.50;95.40
52189;DHT22;38162;45.926;13.608;2023-04-15T10:18:46;12.50;95.60
52189;DHT22;38162;45.926;13.608;2023-04-15T10:21:12;12.50;95.60
52189;DHT22;38162;45.926;13.608;2023-04-15T10:23:41;12.50;95.70
52189;DHT22;38162;45.926;13.608;2023-04-15T10:26:07;12.60;95.70
52189;DHT22;38162;45.926;13.608;2023-04-15T10:28:34;12.60;95.80
52189;DHT22;38162;45.926;13.608;2023-04-15T10:31:00;12.60;95.70
52189;DHT22;38162;45.926;13.608;2023-04-15T10:33:27;12.70;95.90
52189;DHT22;38162;45.926;13.608;2023-04-15T10:35:54;12.80;96.30
52189;DHT22;38162;45.926;13.608;2023-04-15T10:38:37;12.90;95.90
52189;DHT22;38162;45.926;13.608;2023-04-15T10:44:04;13.00;95.40
52189;DHT22;38162;45.926;13.608;2023-04-15T10:46:36;13.10;95.30
52189;DHT22;38162;45.926;13.608;2023-04-15T10:49:14;13.10;95.10
52189;DHT22;38162;45.926;13.608;2023-04-15T10:51:52;13.10;94.70
52189;DHT22;38162;45.926;13.608;2023-04-15T10:59:38;13.10;93.60
52189;DHT22;38162;45.926;13.608;2023-04-15T11:02:38;13.00;93.20
52189;DHT22;38162;45.926;13.608;2023-04-15T11:05:05;12.90;93.00
52189;DHT22;38162;45.926;13.608;2023-04-15T11:12:46;12.70;93.50
52189;DHT22;38162;45.926;13.608;2023-04-15T11:15:32;12.60;93.90
52189;DHT22;38162;45.926;13.608;2023-04-15T11:18:28;12.50;94.10
52189;DHT22;38162;45.926;13.608;2023-04-15T11:21:00;12.40;94.40
52189;DHT22;38162;45.926;13.608;2023-04-15T11:23:31;12.40;94.80
52189;DHT22;38162;45.926;13.608;2023-04-15T11:25:59;12.30;95.10
52189;DHT22;38162;45.926;13.608;2023-04-15T11:28:26;12.30;95.20
52189;DHT22;38162;45.926;13.608;2023-04-15T11:30:52;12.20;95.30
52189;DHT22;38162;45.926;13.608;2023-04-15T11:33:20;12.20;95.90
52189;DHT22;38162;45.926;13.608;2023-04-15T11:35:47;12.10;95.80
52189;DHT22;38162;45.926;13.608;2023-04-15T11:38:13;12.10;95.90
52189;DHT22;38162;45.926;13.608;2023-04-15T11:40:40;12.10;96.10
52189;DHT22;38162;45.926;13.608;2023-04-15T11:43:11;12.10;96.10
52189;DHT22;38162;45.926;13.608;2023-04-15T11:46:04;12.10;96.10
52189;DHT22;38162;45.926;13.608;2023-04-15T11:48:32;12.10;96.10
52189;DHT22;38162;45.926;13.608;2023-04-15T11:51:00;12.10;95.80
52189;DHT22;38162;45.926;13.608;2023-04-15T11:53:45;12.10;95.70
52189;DHT22;38162;45.926;13.608;2023-04-15T11:56:17;12.20;95.60
52189;DHT22;38162;45.926;13.608;2023-04-15T11:58:43;12.20;95.40
52189;DHT22;38162;45.926;13.608;2023-04-15T12:01:11;12.20;95.20
52189;DHT22;38162;45.926;13.608;2023-04-15T12:03:44;12.20;95.40
52189;DHT22;38162;45.926;13.608;2023-04-15T12:06:20;12.10;95.50
52189;DHT22;38162;45.926;13.608;2023-04-15T12:08:49;12.10;95.40
52189;DHT22;38162;45.926;13.608;2023-04-15T12:14:02;12.00;95.60
52189;DHT22;38162;45.926;13.608;2023-04-15T12:16:29;12.00;95.80
52189;DHT22;38162;45.926;13.608;2023-04-15T12:18:56;12.10;96.00
52189;DHT22;38162;45.926;13.608;2023-04-15T12:21:27;12.10;96.10
52189;DHT22;38162;45.926;13.608;2023-04-15T12:23:54;12.10;95.90
52189;DHT22;38162;45.926;13.608;2023-04-15T12:26:46;12.10;95.60
52189;DHT22;38162;45.926;13.608;2023-04-15T12:29:13;12.20;95.60
52189;DHT22;38162;45.926;13.608;2023-04-15T12:31:48;12.20;95.60
52189;DHT22;38162;45.926;13.608;2023-04-15T12:34:15;12.20;95.70
52189;DHT22;38162;45.926;13.608;2023-04-15T12:36:41;12.20;95.70
52189;DHT22;38162;45.926;13.608;2023-04-15T12:39:08;12.30;95.70
52189;DHT22;38162;45.926;13.608;2023-04-15T12:41:34;12.30;95.40
52189;DHT22;38162;45.926;13.608;2023-04-15T12:43:59;12.30;95.20
52189;DHT22;38162;45.926;13.608;2023-04-15T12:46:25;12.40;95.30
52189;DHT22;38162;45.926;13.608;2023-04-15T12:48:51;12.50;95.50
52189;DHT22;38162;45.926;13.608;2023-04-15T12:51:18;12.60;95.70
52189;DHT22;38162;45.926;13.608;2023-04-15T12:53:43;12.70;95.40
52189;DHT22;38162;45.926;13.608;2023-04-15T12:56:09;12.90;95.00
52189;DHT22;38162;45.926;13.608;2023-04-15T12:58:35;13.10;94.60
52189;DHT22;38162;45.926;13.608;2023-04-15T13:01:01;13.30;94.10
52189;DHT22;38162;45.926;13.608;2023-04-15T13:03:27;13.50;93.20
52189;DHT22;38162;45.926;13.608;2023-04-15T13:05:53;13.70;92.00
52189;DHT22;38162;45.926;13.608;2023-04-15T13:08:19;13.80;91.60
52189;DHT22;38162;45.926;13.608;2023-04-15T13:10:45;14.00;91.00
52189;DHT22;38162;45.926;13.608;2023-04-15T13:13:10;14.20;90.90
52189;DHT22;38162;45.926;13.608;2023-04-15T13:15:36;14.30;89.80
52189;DHT22;38162;45.926;13.608;2023-04-15T13:18:04;14.40;89.20
52189;DHT22;38162;45.926;13.608;2023-04-15T13:20:29;14.50;87.30
52189;DHT22;38162;45.926;13.608;2023-04-15T13:22:55;14.50;86.80
52189;DHT22;38162;45.926;13.608;2023-04-15T13:25:21;14.60;86.60
52189;DHT22;38162;45.926;13.608;2023-04-15T13:27:47;14.60;84.40
52189;DHT22;38162;45.926;13.608;2023-04-15T13:30:12;14.60;84.10
52189;DHT22;38162;45.926;13.608;2023-04-15T13:32:38;14.70;83.50
52189;DHT22;38162;45.926;13.608;2023-04-15T13:35:04;14.80;81.30
52189;DHT22;38162;45.926;13.608;2023-04-15T13:37:30;14.80;81.00
52189;DHT22;38162;45.926;13.608;2023-04-15T13:39:56;15.00;80.50
52189;DHT22;38162;45.926;13.608;2023-04-15T13:42:22;15.00;78.60
52189;DHT22;38162;45.926;13.608;2023-04-15T13:44:49;15.10;78.40
52189;DHT22;38162;45.926;13.608;2023-04-15T13:47:19;15.10;77.80
52189;DHT22;38162;45.926;13.608;2023-04-15T13:49:45;15.10;77.60
52189;DHT22;38162;45.926;13.608;2023-04-15T13:52:11;15.00;75.60
52189;DHT22;38162;45.926;13.608;2023-04-15T13:54:37;15.00;76.00
52189;DHT22;38162;45.926;13.608;2023-04-15T13:57:03;15.10;76.90
52189;DHT22;38162;45.926;13.608;2023-04-15T13:59:29;15.00;76.80
52189;DHT22;38162;45.926;13.608;2023-04-15T14:01:54;15.00;77.10
52189;DHT22;38162;45.926;13.608;2023-04-15T14:04:20;14.90;78.10
52189;DHT22;38162;45.926;13.608;2023-04-15T14:06:46;14.90;78.40
52189;DHT22;38162;45.926;13.608;2023-04-15T14:09:12;14.90;77.90
52189;DHT22;38162;45.926;13.608;2023-04-15T14:11:38;14.90;79.40
52189;DHT22;38162;45.926;13.608;2023-04-15T14:14:04;14.90;80.20
52189;DHT22;38162;45.926;13.608;2023-04-15T14:16:32;14.90;80.30
52189;DHT22;38162;45.926;13.608;2023-04-15T14:18:58;14.90;80.50
52189;DHT22;38162;45.926;13.608;2023-04-15T14:21:24;14.90;81.60
52189;DHT22;38162;45.926;13.608;2023-04-15T14:23:52;14.90;79.60
52189;DHT22;38162;45.926;13.608;2023-04-15T14:26:18;14.90;79.40
52189;DHT22;38162;45.926;13.608;2023-04-15T14:28:44;15.00;81.60
52189;DHT22;38162;45.926;13.608;2023-04-15T14:31:09;15.00;81.40
52189;DHT22;38162;45.926;13.608;2023-04-15T14:33:35;15.10;80.40
52189;DHT22;38162;45.926;13.608;2023-04-15T14:36:01;15.10;79.40
52189;DHT22;38162;45.926;13.608;2023-04-15T14:38:27;15.10;80.30
52189;DHT22;38162;45.926;13.608;2023-04-15T14:40:53;15.20;78.90
52189;DHT22;38162;45.926;13.608;2023-04-15T14:43:19;15.30;78.10
52189;DHT22;38162;45.926;13.608;2023-04-15T14:45:46;15.40;78.50
52189;DHT22;38162;45.926;13.608;2023-04-15T14:48:12;15.40;78.10
52189;DHT22;38162;45.926;13.608;2023-04-15T14:50:39;15.50;77.00
52189;DHT22;38162;45.926;13.608;2023-04-15T14:53:04;15.50;75.90
52189;DHT22;38162;45.926;13.608;2023-04-15T14:55:30;15.50;73.40
52189;DHT22;38162;45.926;13.608;2023-04-15T14:57:56;15.50;73.60
52189;DHT22;38162;45.926;13.608;2023-04-15T15:00:22;15.50;74.40
52189;DHT22;38162;45.926;13.608;2023-04-15T15:02:47;15.50;75.30
52189;DHT22;38162;45.926;13.608;2023-04-15T15:05:13;15.50;75.70
52189;DHT22;38162;45.926;13.608;2023-04-15T15:07:39;15.60;72.80
52189;DHT22;38162;45.926;13.608;2023-04-15T15:10:06;15.50;73.20
52189;DHT22;38162;45.926;13.608;2023-04-15T15:12:32;15.50;73.70
52189;DHT22;38162;45.926;13.608;2023-04-15T15:14:57;15.50;72.50
52189;DHT22;38162;45.926;13.608;2023-04-15T15:17:23;15.50;73.50
52189;DHT22;38162;45.926;13.608;2023-04-15T15:19:49;15.50;73.70
52189;DHT22;38162;45.926;13.608;2023-04-15T15:22:15;15.50;73.80
52189;DHT22;38162;45.926;13.608;2023-04-15T15:24:41;15.40;74.20
52189;DHT22;38162;45.926;13.608;2023-04-15T15:27:07;15.30;73.20
52189;DHT22;38162;45.926;13.608;2023-04-15T15:29:33;15.30;73.20
52189;DHT22;38162;45.926;13.608;2023-04-15T15:31:58;15.30;73.30
52189;DHT22;38162;45.926;13.608;2023-04-15T15:34:24;15.20;73.10
52189;DHT22;38162;45.926;13.608;2023-04-15T15:36:50;15.30;73.50